createdAt,value
2022-12-14T00:00:00.026Z,-5.69
2022-12-14T00:03:03.212Z,-5.76
2022-12-14T00:06:15.223Z,-5.72
2022-12-14T00:09:18.344Z,-5.65
2022-12-14T00:12:21.428Z,-5.59
2022-12-14T00:15:25.962Z,-5.60
2022-12-14T00:18:29.395Z,-5.69
2022-12-14T00:21:32.842Z,-5.71
2022-12-14T00:24:36.038Z,-5.67
2022-12-14T00:27:44.513Z,-5.67
2022-12-14T00:30:51.822Z,-5.68
2022-12-14T00:33:58.589Z,-5.68
2022-12-14T00:37:01.599Z,-5.69
2022-12-14T00:40:07.359Z,-5.79
2022-12-14T00:43:12.846Z,-5.87
2022-12-14T00:46:17.300Z,-5.86
2022-12-14T00:49:20.374Z,-5.84
2022-12-14T00:52:23.358Z,-5.87
2022-12-14T00:55:26.729Z,-5.93
2022-12-14T00:58:30.442Z,-6.01
2022-12-14T01:01:36.086Z,-5.95
2022-12-14T01:04:39.272Z,-5.98
2022-12-14T01:07:42.314Z,-6.02
2022-12-14T01:10:45.573Z,-6.03
2022-12-14T01:13:49.559Z,-6.05
2022-12-14T01:16:54.206Z,-6.09
2022-12-14T01:19:57.896Z,-6.08
2022-12-14T01:23:00.956Z,-6.09
2022-12-14T01:26:03.926Z,-6.09
2022-12-14T01:29:10.275Z,-6.14
2022-12-14T01:32:14.642Z,-6.14
2022-12-14T01:35:17.848Z,-6.15
2022-12-14T01:38:20.966Z,-6.12
2022-12-14T01:41:28.924Z,-6.14
2022-12-14T01:45:06.416Z,-6.19
2022-12-14T01:48:14.249Z,-6.22
2022-12-14T01:51:17.256Z,-6.22
2022-12-14T01:54:22.154Z,-6.18
2022-12-14T01:57:34.202Z,-6.19
2022-12-14T02:00:38.212Z,-6.24
2022-12-14T02:03:47.281Z,-6.29
2022-12-14T02:06:57.858Z,-6.30
2022-12-14T02:10:07.681Z,-6.33
2022-12-14T02:13:17.516Z,-6.33
2022-12-14T02:16:20.703Z,-6.32
2022-12-14T02:19:25.062Z,-6.33
2022-12-14T02:23:30.382Z,-6.33
2022-12-14T02:27:05.599Z,-6.38
2022-12-14T02:30:13.587Z,-6.39
2022-12-14T02:33:33.480Z,-6.40
2022-12-14T02:36:46.035Z,-6.44
2022-12-14T02:40:05.344Z,-6.43
2022-12-14T02:43:19.898Z,-6.44
2022-12-14T02:46:32.190Z,-6.44
2022-12-14T02:49:57.813Z,-6.48
2022-12-14T02:53:21.930Z,-6.49
2022-12-14T02:56:30.843Z,-6.50
2022-12-14T02:59:34.973Z,-6.48
2022-12-14T03:02:43.422Z,-6.48
2022-12-14T03:05:57.333Z,-6.50
2022-12-14T03:09:04.836Z,-6.51
2022-12-14T03:12:11.871Z,-6.59
2022-12-14T03:15:19.621Z,-6.59
2022-12-14T03:18:28.482Z,-6.57
2022-12-14T03:21:38.815Z,-6.53
2022-12-14T03:24:46.410Z,-6.59
2022-12-14T03:27:54.932Z,-6.60
2022-12-14T03:31:03.100Z,-6.58
2022-12-14T03:34:14.010Z,-6.57
2022-12-14T03:37:21.646Z,-6.62
2022-12-14T03:40:33.776Z,-6.74
2022-12-14T03:43:49.653Z,-6.77
2022-12-14T03:47:03.573Z,-6.87
2022-12-14T03:50:14.484Z,-6.84
2022-12-14T03:53:22.516Z,-6.85
2022-12-14T03:56:39.133Z,-6.83
2022-12-14T03:59:49.598Z,-6.90
2022-12-14T04:03:01.355Z,-6.94
2022-12-14T04:06:10.458Z,-6.94
2022-12-14T04:09:30.553Z,-6.89
2022-12-14T04:12:54.621Z,-6.95
2022-12-14T04:16:18.458Z,-7.01
2022-12-14T04:19:31.968Z,-7.00
2022-12-14T04:22:43.629Z,-7.02
2022-12-14T04:26:05.642Z,-7.00
2022-12-14T04:29:31.038Z,-6.97
2022-12-14T04:32:38.124Z,-7.05
2022-12-14T04:35:43.297Z,-7.10
2022-12-14T04:38:51.916Z,-7.13
2022-12-14T04:42:01.196Z,-7.07
2022-12-14T04:45:09.467Z,-7.14
2022-12-14T04:48:22.424Z,-7.14
2022-12-14T04:51:32.603Z,-7.13
2022-12-14T04:54:43.668Z,-7.12
2022-12-14T04:57:50.483Z,-7.12
2022-12-14T05:01:12.994Z,-7.11
2022-12-14T05:04:30.303Z,-7.10
2022-12-14T05:07:48.718Z,-7.07
2022-12-14T05:11:22.131Z,-7.05
2022-12-14T05:14:35.301Z,-7.11
2022-12-14T05:17:39.827Z,-7.10
2022-12-14T05:20:43.004Z,-7.14
2022-12-14T05:23:45.933Z,-7.10
2022-12-14T05:26:50.242Z,-7.07
2022-12-14T05:29:53.571Z,-7.14
2022-12-14T05:32:56.641Z,-7.23
2022-12-14T05:35:59.635Z,-7.28
2022-12-14T05:39:03.007Z,-7.31
2022-12-14T05:42:07.532Z,-7.31
2022-12-14T05:45:12.540Z,-7.30
2022-12-14T05:48:15.648Z,-7.25
2022-12-14T05:51:23.043Z,-7.23
2022-12-14T05:54:26.106Z,-7.19
2022-12-14T05:57:31.581Z,-7.19
2022-12-14T06:00:34.670Z,-7.20
2022-12-14T06:03:40.226Z,-7.25
2022-12-14T06:06:43.885Z,-7.27
2022-12-14T06:09:47.178Z,-7.32
2022-12-14T06:12:53.973Z,-7.46
2022-12-14T06:15:57.011Z,-7.48
2022-12-14T06:19:02.196Z,-7.44
2022-12-14T06:22:05.274Z,-7.44
2022-12-14T06:25:10.046Z,-7.48
2022-12-14T06:28:16.571Z,-7.52
2022-12-14T06:31:22.947Z,-7.49
2022-12-14T06:34:28.611Z,-7.43
2022-12-14T06:37:34.877Z,-7.44
2022-12-14T06:40:38.479Z,-7.49
2022-12-14T06:43:46.019Z,-7.48
2022-12-14T06:46:52.572Z,-7.50
2022-12-14T06:49:55.638Z,-7.53
2022-12-14T06:52:58.922Z,-7.59
2022-12-14T06:56:10.524Z,-7.67
2022-12-14T06:59:16.473Z,-7.65
2022-12-14T07:02:20.115Z,-7.64
2022-12-14T07:05:23.204Z,-7.68
2022-12-14T07:08:26.746Z,-7.74
2022-12-14T07:11:31.879Z,-7.82
2022-12-14T07:14:36.722Z,-7.86
2022-12-14T07:17:39.966Z,-7.85
2022-12-14T07:20:46.940Z,-7.86
2022-12-14T07:23:52.785Z,-7.88
2022-12-14T07:26:56.415Z,-7.92
2022-12-14T07:30:00.754Z,-7.95
2022-12-14T07:33:03.859Z,-7.98
2022-12-14T07:36:09.282Z,-7.97
2022-12-14T07:39:15.250Z,-7.93
2022-12-14T07:42:18.220Z,-7.93
2022-12-14T07:45:25.759Z,-7.92
2022-12-14T07:48:38.283Z,-7.89
2022-12-14T07:51:44.132Z,-7.81
2022-12-14T07:54:47.416Z,-7.79
2022-12-14T07:57:50.658Z,-7.73
2022-12-14T08:00:56.617Z,-7.68
2022-12-14T08:04:02.274Z,-7.67
2022-12-14T08:07:05.323Z,-7.65
2022-12-14T08:10:09.349Z,-7.66
2022-12-14T08:13:12.637Z,-7.65
2022-12-14T08:16:18.330Z,-7.64
2022-12-14T08:19:22.245Z,-7.63
2022-12-14T08:22:25.342Z,-7.65
2022-12-14T08:25:28.371Z,-7.65
2022-12-14T08:28:33.020Z,-7.66
2022-12-14T08:31:37.431Z,-7.62
2022-12-14T08:34:40.459Z,-7.59
2022-12-14T08:37:47.464Z,-7.53
2022-12-14T08:40:50.872Z,-7.46
2022-12-14T08:43:56.543Z,-7.37
2022-12-14T08:47:01.305Z,-7.28
2022-12-14T08:50:05.679Z,-7.18
2022-12-14T08:53:09.102Z,-7.09
2022-12-14T08:56:17.462Z,-6.99
2022-12-14T08:59:52.135Z,-6.92
2022-12-14T09:02:46.268Z,-6.86
2022-12-14T09:05:54.150Z,-6.76
2022-12-14T09:08:59.386Z,-6.68
2022-12-14T09:12:06.401Z,-6.63
2022-12-14T09:15:13.320Z,-6.53
2022-12-14T09:18:18.693Z,-6.45
2022-12-14T09:21:22.998Z,-6.39
2022-12-14T09:24:26.124Z,-6.32
2022-12-14T09:27:29.219Z,-6.22
2022-12-14T09:30:32.856Z,-6.17
2022-12-14T09:33:37.787Z,-6.13
2022-12-14T09:36:40.853Z,-6.12
2022-12-14T09:39:44.122Z,-6.08
2022-12-14T09:42:57.877Z,-6.00
2022-12-14T09:46:14.348Z,-5.93
2022-12-14T09:49:28.953Z,-5.84
2022-12-14T09:52:41.000Z,-5.75
2022-12-14T09:55:48.036Z,-5.70
2022-12-14T09:58:56.482Z,-5.63
2022-12-14T10:02:30.549Z,-5.55
2022-12-14T10:06:03.504Z,-5.44
2022-12-14T10:09:16.011Z,-5.38
2022-12-14T10:12:36.779Z,-5.29
2022-12-14T10:15:51.619Z,-5.26
2022-12-14T10:19:10.974Z,-5.14
2022-12-14T10:22:20.348Z,-5.07
2022-12-14T10:25:26.693Z,-4.93
2022-12-14T10:28:45.401Z,-4.84
2022-12-14T10:31:58.582Z,-4.77
2022-12-14T10:35:14.217Z,-4.74
2022-12-14T10:38:27.507Z,-4.67
2022-12-14T10:41:39.530Z,-4.58
2022-12-14T10:45:23.309Z,-4.55
2022-12-14T10:48:39.798Z,-4.47
2022-12-14T10:51:49.787Z,-4.46
2022-12-14T10:54:59.279Z,-4.42
2022-12-14T10:58:02.410Z,-4.37
2022-12-14T11:01:05.639Z,-4.35
2022-12-14T11:04:22.696Z,-4.29
2022-12-14T11:07:29.731Z,-4.25
2022-12-14T11:10:39.545Z,-4.25
2022-12-14T11:13:53.417Z,-4.21
2022-12-14T11:16:56.631Z,-4.15
2022-12-14T11:20:19.550Z,-3.99
2022-12-14T11:23:26.919Z,-3.88
2022-12-14T11:26:36.467Z,-3.81
2022-12-14T11:29:41.264Z,-3.72
2022-12-14T11:32:48.536Z,-3.59
2022-12-14T11:35:53.057Z,-3.51
2022-12-14T11:38:57.373Z,-3.58
2022-12-14T11:42:04.650Z,-3.52
2022-12-14T11:45:31.385Z,-3.50
2022-12-14T11:48:38.451Z,-3.50
2022-12-14T11:52:05.687Z,-3.49
2022-12-14T11:55:15.877Z,-3.50
2022-12-14T11:58:24.968Z,-3.49
2022-12-14T12:01:28.254Z,-3.51
2022-12-14T12:04:34.731Z,-3.50
2022-12-14T12:07:43.620Z,-3.37
2022-12-14T12:10:51.477Z,-3.37
2022-12-14T12:14:02.571Z,-3.20
2022-12-14T12:17:20.520Z,-3.10
2022-12-14T12:20:31.093Z,-3.15
2022-12-14T12:23:39.502Z,-3.20
2022-12-14T12:26:49.846Z,-3.22
2022-12-14T12:30:11.143Z,-3.19
2022-12-14T12:33:33.429Z,-3.12
2022-12-14T12:36:37.686Z,-3.10
2022-12-14T12:39:44.572Z,-3.08
2022-12-14T12:42:55.463Z,-3.04
2022-12-14T12:46:10.256Z,-3.04
2022-12-14T12:49:23.123Z,-3.10
2022-12-14T12:52:55.382Z,-3.14
2022-12-14T12:56:09.666Z,-3.15
2022-12-14T13:00:25.147Z,-3.29
2022-12-14T13:03:37.358Z,-3.25
2022-12-14T13:06:46.690Z,-3.15
2022-12-14T13:09:54.425Z,-3.08
2022-12-14T13:13:04.291Z,-3.14
2022-12-14T13:16:16.419Z,-3.27
2022-12-14T13:19:50.559Z,-3.40
2022-12-14T13:22:57.325Z,-3.50
2022-12-14T13:26:56.190Z,-3.59
2022-12-14T13:30:18.762Z,-3.58
2022-12-14T13:33:52.132Z,-3.63
2022-12-14T13:37:37.958Z,-3.68
2022-12-14T13:41:05.961Z,-3.65
2022-12-14T13:44:38.645Z,-3.72
2022-12-14T13:47:52.312Z,-3.73
2022-12-14T13:51:02.008Z,-3.75
2022-12-14T13:54:20.526Z,-3.80
2022-12-14T13:57:25.668Z,-3.85
2022-12-14T14:00:56.968Z,-3.86
2022-12-14T14:04:23.249Z,-3.95
2022-12-14T14:07:53.638Z,-4.00
2022-12-14T14:11:35.358Z,-4.05
2022-12-14T14:14:39.048Z,-4.14
2022-12-14T14:17:45.669Z,-4.14
2022-12-14T14:20:57.005Z,-4.26
2022-12-14T14:24:20.328Z,-4.30
2022-12-14T14:27:28.703Z,-4.29
2022-12-14T14:30:37.248Z,-4.31
2022-12-14T14:34:03.873Z,-4.34
2022-12-14T14:37:30.513Z,-4.32
2022-12-14T14:41:14.215Z,-4.34
2022-12-14T14:44:18.573Z,-4.45
2022-12-14T14:47:27.824Z,-4.51
2022-12-14T14:50:36.728Z,-4.53
2022-12-14T14:53:41.233Z,-4.55
2022-12-14T14:56:44.570Z,-4.59
2022-12-14T15:00:00.558Z,-4.61
2022-12-14T15:03:04.660Z,-4.65
2022-12-14T15:06:15.626Z,-4.70
2022-12-14T15:09:27.336Z,-4.69
2022-12-14T15:12:40.050Z,-4.83
2022-12-14T15:15:47.417Z,-4.88
2022-12-14T15:18:50.720Z,-4.94
2022-12-14T15:21:57.595Z,-5.03
2022-12-14T15:25:02.605Z,-5.07
2022-12-14T15:28:08.408Z,-5.15
2022-12-14T15:31:13.116Z,-5.11
2022-12-14T15:34:19.078Z,-5.17
2022-12-14T15:37:29.482Z,-5.08
2022-12-14T15:40:36.524Z,-5.11
2022-12-14T15:43:46.075Z,-5.20
2022-12-14T15:46:55.122Z,-5.17
2022-12-14T15:50:23.822Z,-5.15
2022-12-14T15:53:32.869Z,-5.18
2022-12-14T15:56:41.092Z,-5.16
2022-12-14T15:59:45.598Z,-5.15
2022-12-14T16:02:54.134Z,-5.18
2022-12-14T16:05:58.519Z,-5.23
2022-12-14T16:09:07.133Z,-5.27
2022-12-14T16:12:18.476Z,-5.26
2022-12-14T16:15:25.783Z,-5.27
2022-12-14T16:18:30.394Z,-5.26
2022-12-14T16:21:36.287Z,-5.32
2022-12-14T16:24:54.099Z,-5.38
2022-12-14T16:28:23.134Z,-5.56
2022-12-14T16:31:27.497Z,-5.65
2022-12-14T16:34:33.382Z,-5.63
2022-12-14T16:37:36.571Z,-5.65
2022-12-14T16:40:43.053Z,-5.63
2022-12-14T16:43:56.522Z,-5.62
2022-12-14T16:47:29.419Z,-5.65
2022-12-14T16:54:01.864Z,-5.75
2022-12-14T16:57:18.896Z,-5.72
2022-12-14T17:00:25.214Z,-5.74
2022-12-14T17:03:31.845Z,-5.76
2022-12-14T17:06:45.579Z,-5.75
2022-12-14T17:09:48.576Z,-5.78
2022-12-14T17:12:54.580Z,-5.87
2022-12-14T17:16:01.524Z,-5.88
2022-12-14T17:19:06.077Z,-5.90
2022-12-14T17:22:18.585Z,-5.88
2022-12-14T17:25:22.222Z,-5.86
2022-12-14T17:28:29.177Z,-5.89
2022-12-14T17:31:32.424Z,-5.90
2022-12-14T17:34:46.296Z,-5.99
2022-12-14T17:37:52.173Z,-6.07
2022-12-14T17:40:56.054Z,-6.08
2022-12-14T17:43:59.848Z,-6.05
2022-12-14T17:47:03.011Z,-6.05
2022-12-14T17:50:09.544Z,-6.12
2022-12-14T17:53:15.212Z,-6.21
2022-12-14T17:56:19.156Z,-6.17
2022-12-14T17:59:23.863Z,-6.17
2022-12-14T18:02:32.986Z,-6.17
2022-12-14T18:05:37.043Z,-6.22
2022-12-14T18:08:41.861Z,-6.25
2022-12-14T18:12:22.096Z,-6.35
2022-12-14T18:15:24.465Z,-6.44
2022-12-14T18:18:29.646Z,-6.44
2022-12-14T18:21:38.698Z,-6.47
2022-12-14T18:24:43.029Z,-6.58
2022-12-14T18:27:46.067Z,-6.58
2022-12-14T18:30:55.305Z,-6.63
2022-12-14T18:33:58.596Z,-6.53
2022-12-14T18:37:02.805Z,-6.56
2022-12-14T18:40:13.395Z,-6.58
2022-12-14T18:43:20.255Z,-6.67
2022-12-14T18:46:23.573Z,-6.56
2022-12-14T18:49:27.730Z,-6.62
2022-12-14T18:52:30.687Z,-6.80
2022-12-14T18:55:35.482Z,-6.88
2022-12-14T18:58:41.786Z,-6.80
2022-12-14T19:01:44.835Z,-6.85
2022-12-14T19:04:48.962Z,-6.86
2022-12-14T19:07:52.338Z,-6.92
2022-12-14T19:10:56.851Z,-6.93
2022-12-14T19:14:01.013Z,-6.96
2022-12-14T19:17:05.097Z,-6.96
2022-12-14T19:20:11.283Z,-7.07
2022-12-14T19:23:16.679Z,-6.94
2022-12-14T19:26:21.160Z,-6.95
2022-12-14T19:29:24.261Z,-6.99
2022-12-14T19:32:27.462Z,-7.01
2022-12-14T19:35:31.787Z,-7.02
2022-12-14T19:38:35.721Z,-7.08
2022-12-14T19:41:40.087Z,-7.11
2022-12-14T19:44:43.059Z,-7.10
2022-12-14T19:47:46.515Z,-7.15
2022-12-14T19:50:51.636Z,-7.18
2022-12-14T19:53:56.057Z,-7.26
2022-12-14T19:57:00.466Z,-7.26
2022-12-14T20:00:03.706Z,-7.23
2022-12-14T20:03:13.324Z,-7.26
2022-12-14T20:06:17.276Z,-7.31
2022-12-14T20:09:20.354Z,-7.36
2022-12-14T20:12:24.768Z,-7.38
2022-12-14T20:15:27.739Z,-7.36
2022-12-14T20:18:32.608Z,-7.38
2022-12-14T20:21:38.768Z,-7.36
2022-12-14T20:24:42.390Z,-7.34
2022-12-14T20:27:49.709Z,-7.34
2022-12-14T20:30:53.590Z,-7.33
2022-12-14T20:33:56.631Z,-7.38
2022-12-14T20:37:00.340Z,-7.42
2022-12-14T20:40:04.196Z,-7.48
2022-12-14T20:43:08.561Z,-7.48
2022-12-14T20:46:27.298Z,-7.52
2022-12-14T20:49:34.303Z,-7.54
2022-12-14T20:52:40.509Z,-7.56
2022-12-14T20:55:43.793Z,-7.61
2022-12-14T20:58:49.442Z,-7.65
2022-12-14T21:01:56.229Z,-7.70
2022-12-14T21:04:59.968Z,-7.67
2022-12-14T21:08:17.858Z,-7.65
2022-12-14T21:11:38.814Z,-7.72
2022-12-14T21:14:44.734Z,-7.71
2022-12-14T21:17:50.640Z,-7.69
2022-12-14T21:20:53.739Z,-7.70
2022-12-14T21:23:58.173Z,-7.77
2022-12-14T21:27:01.375Z,-7.78
2022-12-14T21:30:09.038Z,-7.82
2022-12-14T21:33:12.028Z,-7.85
2022-12-14T21:36:15.880Z,-7.87
2022-12-14T21:39:20.670Z,-7.88
2022-12-14T21:42:24.507Z,-7.87
2022-12-14T21:45:28.914Z,-7.82
2022-12-14T21:48:32.210Z,-7.82
2022-12-14T21:51:35.422Z,-7.88
2022-12-14T21:54:40.233Z,-7.86
2022-12-14T21:58:00.682Z,-7.87
2022-12-14T22:01:09.088Z,-7.92
2022-12-14T22:04:12.257Z,-7.91
2022-12-14T22:07:16.504Z,-7.89
2022-12-14T22:10:25.140Z,-7.88
2022-12-14T22:13:28.830Z,-7.91
2022-12-14T22:16:34.915Z,-7.96
2022-12-14T22:19:38.144Z,-8.01
2022-12-14T22:22:44.827Z,-8.04
2022-12-14T22:25:50.736Z,-8.03
2022-12-14T22:28:54.785Z,-8.04
2022-12-14T22:31:59.210Z,-8.09
2022-12-14T22:35:02.506Z,-8.08
2022-12-14T22:38:06.276Z,-8.08
2022-12-14T22:41:15.288Z,-8.06
2022-12-14T22:44:18.257Z,-8.08
2022-12-14T22:47:22.803Z,-8.06
2022-12-14T22:50:25.825Z,-8.03
2022-12-14T22:53:31.455Z,-8.07
2022-12-14T22:56:39.290Z,-8.12
2022-12-14T22:59:49.693Z,-8.13
2022-12-14T23:02:55.448Z,-8.17
2022-12-14T23:06:02.305Z,-8.19
2022-12-14T23:09:23.791Z,-8.19
2022-12-14T23:12:44.510Z,-8.24
2022-12-14T23:16:05.228Z,-8.29
2022-12-14T23:19:27.249Z,-8.27
2022-12-14T23:22:51.415Z,-8.31
2022-12-14T23:26:12.381Z,-8.33
2022-12-14T23:29:35.236Z,-8.33
2022-12-14T23:32:55.958Z,-8.34
2022-12-14T23:36:20.174Z,-8.30
2022-12-14T23:39:43.222Z,-8.35
2022-12-14T23:43:06.307Z,-8.35
2022-12-14T23:46:27.095Z,-8.37
2022-12-14T23:49:47.898Z,-8.40
2022-12-14T23:53:09.998Z,-8.40
2022-12-14T23:56:32.898Z,-8.44
2022-12-14T23:59:53.639Z,-8.43
